Meteorología y climatología de Navarra
Datos de la estación - Meteo Navarra

Estación de Aralar GN

Altitud 1344 m.


Datos desde el 03/12/2019 hasta el 04/12/2019 en horario solar
Los datos son PROVISIONALES

Anterior Página 1 de 1 Siguiente Descargar: Formato para Excel 2000 o superior   Formato csv   Formato para OpenOffice Calc
Fecha Temperatura Humedad relativa Radiación global Insolación Precipitación Vel. viento 10 m Vel. viento 10 m Dir. viento 10 m
ºC % W/m² s l/m² m/s km/h º
03/12/2019 0:00 -2.4 100 0.0 0 0.0 3.1 11.0 337
03/12/2019 0:10 -2.5 100 0.0 0 0.0 3.3 11.8 338
03/12/2019 0:20 -2.6 100 0.0 0 0.0 3.9 14.0 340
03/12/2019 0:30 -2.6 100 0.0 0 0.0 4.6 16.5 340
03/12/2019 0:40 -2.6 100 0.0 0 0.0 5.8 21.0 344
03/12/2019 0:50 -2.5 100 0.0 0 0.0 3.9 13.9 344
03/12/2019 1:00 -2.6 100 0.0 0 0.0 3.1 11.0 346
03/12/2019 1:10 -2.7 100 0.0 0 0.0 2.9 10.3 345
03/12/2019 1:20 -2.6 100 0.0 0 0.0 2.8 9.9 344
03/12/2019 1:30 -2.7 100 0.0 0 0.0 2.7 9.8 342
03/12/2019 1:40 -2.6 100 0.0 0 0.1 2.8 10.2 347
03/12/2019 1:50 -2.7 100 0.0 0 0.0 2.7 9.8 345
03/12/2019 2:00 -2.8 100 0.0 0 0.0 2.7 9.6 345
03/12/2019 2:10 -2.8 100 0.0 0 0.0 2.6 9.3 349
03/12/2019 2:20 -2.9 100 0.0 0 0.0 2.6 9.2 351
03/12/2019 2:30 -2.9 100 0.0 0 0.0 2.7 9.5 351
03/12/2019 2:40 -3.1 100 0.0 0 0.0 2.7 9.6 348
03/12/2019 2:50 -3.1 100 0.0 0 0.0 2.7 9.7 347
03/12/2019 3:00 -3.0 100 0.0 0 0.0 3.1 11.2 347
03/12/2019 3:10 -3.0 100 0.0 0 0.0 2.7 9.8 345
03/12/2019 3:20 -3.0 100 0.0 0 0.0 2.7 9.7 346
03/12/2019 3:30 -3.1 100 0.0 0 0.0 2.5 9.0 344
03/12/2019 3:40 -3.1 100 0.0 0 0.0 2.6 9.4 346
03/12/2019 3:50 -3.0 100 0.0 0 0.0 2.6 9.3 348
03/12/2019 4:00 -3.1 100 0.0 0 0.0 2.6 9.4 351
03/12/2019 4:10 -3.1 100 0.0 0 0.0 2.6 9.4 351
03/12/2019 4:20 -3.1 100 0.0 0 0.0 2.7 9.6 349
03/12/2019 4:30 -3.0 100 0.0 0 0.0 2.7 9.6 348
03/12/2019 4:40 -3.0 100 0.0 0 0.0 2.7 9.7 351
03/12/2019 4:50 -3.0 100 0.0 0 0.0 2.7 9.6 350
03/12/2019 5:00 -3.0 100 0.0 0 0.0 2.7 9.6 346
03/12/2019 5:10 -3.0 100 0.0 0 0.0 2.9 10.3 347
03/12/2019 5:20 -2.9 100 0.0 0 0.0 2.7 9.6 349
03/12/2019 5:30 -3.0 100 0.0 0 0.0 2.7 9.6 347
03/12/2019 5:40 -3.0 100 0.0 0 0.0 2.6 9.5 347
03/12/2019 5:50 -3.0 100 0.0 0 0.0 2.6 9.3 346
03/12/2019 6:00 -3.0 100 0.0 0 0.0 2.5 9.1 349
03/12/2019 6:10 -3.0 100 0.0 0 0.0 2.9 10.4 352
03/12/2019 6:20 -3.0 100 0.0 0 0.0 3.0 10.7 351
03/12/2019 6:30 -3.0 100 0.0 0 0.0 3.6 12.9 351
03/12/2019 6:40 -3.0 100 0.0 0 0.0 3.6 13.0 353
03/12/2019 6:50 -3.1 100 0.0 0 0.0 3.6 13.0 356
03/12/2019 7:00 -3.1 100 0.0 0 0.0 3.7 13.3 350
03/12/2019 7:10 -3.0 100 0.0 0 0.0 3.4 12.4 347
03/12/2019 7:20 -3.1 100 0.0 0 0.0 3.2 11.4 350
03/12/2019 7:30 -3.1 100 0.0 0 0.0 2.6 9.2 352
03/12/2019 7:40 -3.0 100 5.9 0 0.0 2.4 8.6 349
03/12/2019 7:50 -3.1 100 14.9 0 0.0 2.5 8.8 349
03/12/2019 8:00 -3.0 100 31.1 82 0.0 2.6 9.2 346
03/12/2019 8:10 -3.0 100 33.2 0 0.0 2.5 8.9 344
03/12/2019 8:20 -3.0 100 47.7 24 0.0 2.7 9.5 343
03/12/2019 8:30 -3.0 100 66.8 92 0.0 2.6 9.4 348
03/12/2019 8:40 -3.0 100 75.0 74 0.0 2.5 9.0 348
03/12/2019 8:50 -2.9 100 84.2 82 0.0 2.3 8.1 346
03/12/2019 9:00 -2.9 100 89.8 56 0.0 2.3 8.3 344
03/12/2019 9:10 -2.9 100 91.2 0 0.0 2.3 8.4 344
03/12/2019 9:20 -2.9 100 110.3 86 0.0 2.3 8.3 346
03/12/2019 9:30 -2.7 100 160.1 366 0.0 2.3 8.3 344
03/12/2019 9:40 -2.7 100 163.1 352 0.0 2.2 8.0 341
03/12/2019 9:50 -2.7 100 157.4 142 0.0 2.0 7.2 343
03/12/2019 10:00 -2.7 100 183.7 344 0.0 2.3 8.1 344
03/12/2019 10:10 -2.7 100 255.5 550 0.0 2.3 8.1 348
03/12/2019 10:20 -2.6 100 254.0 574 0.0 2.2 7.8 343
03/12/2019 10:30 -2.5 100 234.8 484 0.0 1.9 6.8 345
03/12/2019 10:40 -2.4 100 193.7 194 0.0 1.1 3.8 354
03/12/2019 10:50 -2.4 100 206.3 226 0.0 1.6 5.7 347
03/12/2019 11:00 -2.4 100 209.3 218 0.0 1.7 6.3 346
03/12/2019 11:10 -2.3 100 237.4 380 0.0 1.6 5.7 345
03/12/2019 11:20 -2.2 100 189.5 102 0.0 1.5 5.3 342
03/12/2019 11:30 -2.3 100 264.7 524 0.0 1.8 6.3 349
03/12/2019 11:40 -2.2 100 312.7 570 0.0 1.9 7.0 346
03/12/2019 11:50 -2.3 100 237.2 374 0.0 1.2 4.3 350
03/12/2019 12:00 -2.3 100 280.6 434 0.0 1.4 5.0 351
03/12/2019 12:10 -2.2 100 312.9 568 0.0 1.5 5.4 351
03/12/2019 12:20 -2.4 100 308.1 566 0.0 1.5 5.2 354
03/12/2019 12:30 -2.4 100 348.7 600 0.1 1.0 3.7 2
03/12/2019 12:40 -2.2 100 308.6 600 0.0 1.0 3.6 6
03/12/2019 12:50 -2.3 100 325.8 600 0.1 0.7 2.4 7
03/12/2019 13:00 -2.3 100 407.9 600 0.0 0.0 0.0 0
03/12/2019 13:10 -2.3 100 258.8 358 0.0 0.0 0.0 0
03/12/2019 13:20 -2.0 100 281.6 508 0.1 0.0 0.0 0
03/12/2019 13:30 -1.8 100 270.1 540 0.1 0.0 0.0 0
03/12/2019 13:40 -1.2 100 322.2 600 0.0 0.0 0.0 0
03/12/2019 13:50 -1.0 100 306.3 578 0.0 0.0 0.0 159
03/12/2019 14:00 -0.8 100 311.5 600 0.0 0.0 0.0 0
03/12/2019 14:10 -0.5 100 299.8 600 0.0 0.0 0.0 0
03/12/2019 14:20 -0.5 100 290.9 600 0.0 0.0 0.0 0
03/12/2019 14:30 -0.4 100 282.3 600 0.0 0.0 0.0 0
03/12/2019 14:40 -0.5 100 262.2 600 0.0 0.0 0.0 0
03/12/2019 14:50 -0.6 100 236.9 600 0.0 0.0 0.0 0
03/12/2019 15:00 -0.5 100 210.8 600 0.0 0.0 0.0 169
03/12/2019 15:10 -0.4 100 192.1 600 0.0 0.0 0.0 167
03/12/2019 15:20 -0.4 100 175.1 600 0.0 0.0 0.0 162
03/12/2019 15:30 -0.4 100 158.4 600 0.0 0.0 0.0 166
03/12/2019 15:40 -0.5 100 153.9 600 0.0 0.0 0.0 168
03/12/2019 15:50 -0.6 100 147.4 600 0.0 6.3 22.6 167
03/12/2019 16:00 -0.6 100 118.7 600 0.0 7.6 27.4 168
03/12/2019 16:10 -0.4 100 83.2 600 0.0 7.9 28.6 169
03/12/2019 16:20 -0.5 100 51.7 600 0.0 8.6 30.8 169
03/12/2019 16:30 -0.5 100 25.6 168 0.0 8.9 32.0 171
03/12/2019 16:40 -0.5 100 0.0 0 0.0 9.2 33.1 169
03/12/2019 16:50 -0.6 100 0.0 0 0.0 9.1 32.7 169
03/12/2019 17:00 -0.6 100 0.0 0 0.0 8.1 29.3 167
03/12/2019 17:10 -0.6 100 0.0 0 0.0 9.3 33.5 173
03/12/2019 17:20 -0.7 100 0.0 0 0.0 9.5 34.2 175
03/12/2019 17:30 -0.9 100 0.0 0 0.0 8.8 31.5 177
03/12/2019 17:40 -0.9 100 0.0 0 0.0 7.8 28.0 173
03/12/2019 17:50 -0.9 100 0.0 0 0.0 7.1 25.7 167
03/12/2019 18:00 -0.9 100 0.0 0 0.0 8.9 31.9 168
03/12/2019 18:10 -0.9 100 0.0 0 0.0 10.2 36.6 166
03/12/2019 18:20 -0.9 100 0.0 0 0.0 10.0 36.0 165
03/12/2019 18:30 -0.9 100 0.0 0 0.0 10.0 36.0 164
03/12/2019 18:40 -0.9 100 0.0 0 0.0 10.1 36.5 164
03/12/2019 18:50 -0.9 100 0.0 0 0.0 10.3 37.2 164
03/12/2019 19:00 -0.9 100 0.0 0 0.0 10.0 36.0 164
03/12/2019 19:10 -1.0 100 0.0 0 0.0 10.0 35.9 162
03/12/2019 19:20 -1.0 100 0.0 0 0.0 9.3 33.4 160
03/12/2019 19:30 -1.1 100 0.0 0 0.0 9.9 35.5 162
03/12/2019 19:40 -1.1 100 0.0 0 0.0 10.2 36.8 162
03/12/2019 19:50 -1.0 100 0.0 0 0.0 10.0 36.0 164
03/12/2019 20:00 -1.0 100 0.0 0 0.0 10.7 38.3 161
03/12/2019 20:10 -1.0 100 0.0 0 0.0 9.4 33.7 161
03/12/2019 20:20 -0.9 100 0.0 0 0.0 9.6 34.5 161
03/12/2019 20:30 -0.7 100 0.0 0 0.0 9.8 35.4 163
03/12/2019 20:40 -0.7 100 0.0 0 0.0 10.6 38.1 163
03/12/2019 20:50 -0.7 100 0.0 0 0.0 10.5 37.8 164
03/12/2019 21:00 -0.7 100 0.0 0 0.0 11.6 41.9 164
03/12/2019 21:10 -0.8 100 0.0 0 0.0 12.0 43.1 165
03/12/2019 21:20 -0.7 100 0.0 0 0.0 11.9 42.9 167
03/12/2019 21:30 -0.5 100 0.0 0 0.0 11.7 42.0 165
03/12/2019 21:40 -0.6 100 0.0 0 0.0 11.0 39.4 165
03/12/2019 21:50 -0.4 100 0.0 0 0.0 11.6 41.7 165
03/12/2019 22:00 -0.2 100 0.0 0 0.0 11.9 42.8 164
03/12/2019 22:10 -0.2 100 0.0 0 0.0 11.9 42.9 166
03/12/2019 22:20 -0.2 100 0.0 0 0.0 12.7 45.5 166
03/12/2019 22:30 -0.3 100 0.0 0 0.0 12.7 45.7 164
03/12/2019 22:40 -0.1 100 0.0 0 0.0 12.6 45.2 163
03/12/2019 22:50 -0.2 100 0.0 0 0.0 13.3 47.7 163
03/12/2019 23:00 -0.1 100 0.0 0 0.0 13.3 47.7 162
03/12/2019 23:10 0.1 100 0.0 0 0.0 13.6 48.8 163
03/12/2019 23:20 0.2 100 0.0 0 0.0 13.9 50.1 163
03/12/2019 23:30 0.3 100 0.0 0 0.0 13.4 48.4 163
03/12/2019 23:40 0.4 100 0.0 0 0.0 13.6 48.9 162
03/12/2019 23:50 0.5 100 0.0 0 0.0 13.1 47.2 162
Anterior Página 1 de 1 Siguiente
Los datos de precipitación registrados en estaciones que están en cumbres son inferiores a lo real, como consecuencia del efecto del viento y de la nieve.


NOTA: Tipo de datos según el color:
   - Valores diarios o 10 minutos correctos
   - Valores diarios calculados a partir de un número de datos 10 minutos menor que 144 y mayor que 120, o de un número de datos semihorarios menor que 48 y mayor que 40 (caso de las estaciones de Riegos de Navarra y del MARM)
   - Valores diez minutos estimados


Contacto        Enlaces        Aviso legal